createdAt,value
2022-09-23T00:01:18.141Z,13.7197
2022-09-23T00:11:19.539Z,13.76025
2022-09-23T00:21:21.484Z,13.65667
2022-09-23T00:31:23.101Z,13.67282
2022-09-23T00:41:24.178Z,13.7745
2022-09-23T00:51:25.585Z,13.80238
2022-09-23T01:01:27.463Z,13.85622
2022-09-23T01:11:29.315Z,13.8084
2022-09-23T01:21:31.545Z,13.61518
2022-09-23T01:31:33.563Z,13.50938
2022-09-23T01:41:35.505Z,13.88758
2022-09-23T01:51:36.362Z,13.7688
2022-09-23T02:01:37.736Z,13.8917
2022-09-23T02:11:38.812Z,13.51508
2022-09-23T02:21:40.127Z,13.45522
2022-09-23T02:31:41.319Z,13.35069
2022-09-23T02:41:42.706Z,13.23539
2022-09-23T02:51:43.917Z,13.2091
2022-09-23T03:01:45.520Z,13.10711
2022-09-23T03:11:46.568Z,13.06498
2022-09-23T03:21:47.820Z,13.01557
2022-09-23T03:31:48.977Z,12.98199
2022-09-23T03:41:51.038Z,12.99339
2022-09-23T03:51:52.735Z,12.96805
2022-09-23T04:01:54.094Z,12.93511
2022-09-23T04:11:55.742Z,12.89615
2022-09-23T04:21:56.700Z,12.93986
2022-09-23T04:31:58.094Z,12.96457
2022-09-23T04:41:59.530Z,12.94018
2022-09-23T04:52:00.482Z,12.88602
2022-09-23T05:02:01.822Z,13.23286
2022-09-23T05:12:03.410Z,13.36368
2022-09-23T05:22:05.071Z,13.29082
2022-09-23T05:32:06.657Z,13.28607
2022-09-23T05:42:08.028Z,13.19421
2022-09-23T05:52:09.528Z,13.16349
2022-09-23T06:02:10.835Z,13.10774
2022-09-23T06:12:11.846Z,13.22811
2022-09-23T06:22:13.521Z,13.20593
2022-09-23T06:32:15.213Z,13.15715
2022-09-23T06:42:16.435Z,13.24394
2022-09-23T06:52:17.435Z,13.25313
2022-09-23T07:02:19.145Z,13.26295
2022-09-23T07:12:20.312Z,13.30128
2022-09-23T07:22:21.603Z,13.29051
2022-09-23T07:32:22.680Z,13.24743
2022-09-23T07:42:23.970Z,13.23444
2022-09-23T07:52:25.267Z,13.42449
2022-09-23T08:02:26.566Z,13.45268
2022-09-23T08:12:27.620Z,13.5097
2022-09-23T08:22:28.580Z,13.33929
2022-09-23T08:32:29.606Z,13.30128
2022-09-23T08:42:30.858Z,13.43178
2022-09-23T08:52:32.858Z,13.55721
2022-09-23T09:02:34.974Z,13.74758
2022-09-23T09:12:36.009Z,13.61834
2022-09-23T09:32:38.800Z,13.58033
2022-09-23T09:42:39.761Z,13.77355
2022-09-23T09:52:44.029Z,13.78527
2022-09-23T10:02:45.344Z,13.70862
2022-09-23T10:12:47.149Z,13.89392
2022-09-23T10:22:48.223Z,14.03614
2022-09-23T10:32:50.471Z,14.02252
2022-09-23T10:42:51.506Z,14.03202
2022-09-23T10:52:53.481Z,14.06465
2022-09-23T11:02:54.782Z,14.12927
2022-09-23T11:12:55.736Z,13.99084
2022-09-23T11:22:56.731Z,14.18597
2022-09-23T11:32:57.742Z,14.14384
2022-09-23T11:42:59.176Z,14.1904
2022-09-23T11:53:01.759Z,14.06433
2022-09-23T12:03:06.049Z,13.95093
2022-09-23T12:13:08.089Z,14.09379
2022-09-23T12:23:09.057Z,14.13719
2022-09-23T12:33:10.738Z,13.9918
2022-09-23T12:43:11.759Z,13.96677
2022-09-23T12:53:12.848Z,14.12737
2022-09-23T13:03:14.948Z,13.98831
2022-09-23T13:13:15.875Z,14.00383
2022-09-23T13:23:16.827Z,14.19959
2022-09-23T13:33:18.771Z,13.90944
2022-09-23T13:43:20.426Z,13.98134
2022-09-23T13:53:21.422Z,13.96867
2022-09-23T14:03:22.489Z,13.937
2022-09-23T14:13:26.010Z,13.95378
2022-09-23T14:20:26.830Z,13.88885
2022-09-23T14:22:45.972Z,13.94555
2022-09-23T14:32:46.983Z,13.91704
2022-09-23T14:42:48.622Z,13.88505
2022-09-23T14:52:50.032Z,13.8917
2022-09-23T15:02:50.950Z,13.91292
2022-09-23T15:12:51.933Z,13.85749
2022-09-23T15:22:53.245Z,13.78305
2022-09-23T15:32:54.186Z,13.6383
2022-09-23T15:42:56.327Z,13.5987
2022-09-23T15:52:58.005Z,13.57875
2022-09-23T16:03:00.330Z,13.56101
2022-09-23T16:13:01.455Z,13.41119
2022-09-23T16:23:02.962Z,13.4568
2022-09-23T16:33:04.282Z,13.36716
2022-09-23T16:43:06.153Z,13.31585
2022-09-23T16:53:08.063Z,13.34594
2022-09-23T17:03:08.991Z,13.29146
2022-09-23T17:13:10.591Z,13.32123
2022-09-23T17:23:11.542Z,13.29367
2022-09-23T17:33:12.826Z,13.23761
2022-09-23T17:43:13.898Z,13.26041
2022-09-23T17:53:15.844Z,13.16887
2022-09-23T18:03:17.863Z,13.04439
2022-09-23T18:13:19.140Z,12.99529
2022-09-23T18:23:24.055Z,12.98262
2022-09-23T18:33:27.003Z,12.93479
2022-09-23T18:43:33.792Z,12.92593
2022-09-23T18:53:37.516Z,12.90692
2022-09-23T19:03:38.803Z,12.88697
2022-09-23T19:53:47.386Z,12.66112
2022-09-23T20:03:49.385Z,12.64782
2022-09-23T20:13:50.655Z,12.63135
2022-09-23T20:23:52.044Z,12.62058
2022-09-23T20:33:53.314Z,12.53854
2022-09-23T20:43:54.281Z,12.4318
2022-09-23T20:53:56.278Z,11.97948
2022-09-23T21:03:57.761Z,11.64278
2022-09-23T21:13:58.698Z,10.404
2022-09-23T21:24:17.294Z,10.09961
2022-09-23T21:34:34.819Z,10.04482
2022-09-23T21:44:35.963Z,10.00237
2022-09-23T21:54:37.325Z,10.24943
2022-09-23T22:04:44.409Z,10.51138
2022-09-23T22:14:45.394Z,10.43758
2022-09-23T22:24:46.333Z,10.33495
2022-09-23T23:15:02.594Z,10.08409
2022-09-23T23:25:03.624Z,10.03405
2022-09-23T23:35:04.963Z,10.054
2022-09-23T23:45:06.546Z,10.15821
2022-09-23T23:55:08.377Z,10.21807
